Zirfaea — PBZV — position and weather

sailwx.info

Track history (hours):
 
Tides and Currents Weather Stations Pressure Air Temp Water Temp Dewpoint Dewpoint Depression Visibility Wind Speed Wind Dir Waves Ship Positions

Oceanographic research ship Zirfaea (Netherlands)

Detailed information on ship capabilities available from University of Delaware's Ocean Information Center.

Last reported at 2017-Dec-11 17:00 UTC. Time now 2017-Dec-13 12:53 UTC.
Position N 52°34' E 003°33'.

Length 63 m; draft 3.9 m.

Type: Law enforcement. MMSI: 246096000.

Date/timePositionNaut miles runAvg speedWind from/ knotsBaromVisibWave heightAir tempDewpointWater temp
2017-Dec-11 17:00N 52°34' E 003°33'4 8.5
2017-Dec-11 16:31N 52°31' E 003°39'4 8.4
2017-Dec-11 16:00N 52°29' E 003°45'4 8.6
2017-Dec-11 15:30N 52°27' E 003°51'4 8.5
2017-Dec-11 15:00N 52°25' E 003°57'4 8.8
2017-Dec-11 14:30N 52°23' E 004°03'4 9.0
2017-Dec-11 14:00N 52°21' E 004°10'2 4.5
2017-Dec-11 13:30N 52°20' E 004°13'4 7.1
2017-Dec-11 13:01N 52°18' E 004°18'3 5.6
2017-Dec-11 12:30N 52°16' E 004°22'2 3.3
2017-Dec-11 12:00N 52°16' E 004°24'2 4.7
2017-Dec-11 11:30N 52°14' E 004°22'3 5.8
2017-Dec-11 11:00N 52°12' E 004°19'3 6.0
2017-Dec-11 10:30N 52°09' E 004°16'3 6.5
2017-Dec-11 10:01N 52°06' E 004°16'0 0.1
2017-Dec-11 09:29N 52°06' E 004°16'0 0.0
2017-Dec-11 08:59N 52°06' E 004°16'0 0.0
2017-Dec-11 08:29N 52°06' E 004°16'0 0.0
2017-Dec-11 07:59N 52°06' E 004°16'0 0.0
2017-Dec-11 07:29N 52°06' E 004°16'0 0.0
2017-Dec-11 06:59N 52°06' E 004°16'0 0.0
2017-Dec-11 06:29N 52°06' E 004°16'0 0.0
2017-Dec-11 05:59N 52°06' E 004°16'0 0.0
2017-Dec-11 05:29N 52°06' E 004°16'0 0.0
2017-Dec-11 04:59N 52°06' E 004°16'0 0.0
2017-Dec-11 04:29N 52°06' E 004°16'0 0.0
2017-Dec-11 03:59N 52°06' E 004°16'0 0.0
2017-Dec-11 03:29N 52°06' E 004°16'0 0.0
2017-Dec-11 02:59N 52°06' E 004°16'0 0.0
2017-Dec-11 02:29N 52°06' E 004°16'0 0.0
2017-Dec-11 01:59N 52°06' E 004°16'0 0.0
2017-Dec-11 01:29N 52°06' E 004°16'0 0.0
2017-Dec-11 00:59N 52°06' E 004°16'0 0.0
2017-Dec-11 00:29N 52°06' E 004°16'0 0.0
2017-Dec-10 23:59N 52°06' E 004°16'0 0.0
2017-Dec-10 23:29N 52°06' E 004°16'0 0.0
2017-Dec-10 22:59N 52°06' E 004°16'0 0.0
2017-Dec-10 22:29N 52°06' E 004°16'0 0.0
2017-Dec-10 21:59N 52°06' E 004°16'0 0.0
2017-Dec-10 21:29N 52°06' E 004°16'0 0.0
2017-Dec-10 20:59N 52°06' E 004°16'0 0.0
2017-Dec-10 20:29N 52°06' E 004°16'0 0.0
2017-Dec-10 19:59N 52°06' E 004°16'0 0.0
2017-Dec-10 19:26N 52°06' E 004°16'0 0.0
2017-Dec-10 18:59N 52°06' E 004°16'0 0.0
2017-Dec-10 18:29N 52°06' E 004°16'0 0.0
2017-Dec-10 17:59N 52°06' E 004°16'0 0.0
2017-Dec-10 17:29N 52°06' E 004°16'0 0.0
2017-Dec-10 16:59N 52°06' E 004°16'0 0.0
2017-Dec-10 16:26N 52°06' E 004°16'0 0.0
2017-Dec-10 15:59N 52°06' E 004°16'0 0.0
2017-Dec-10 15:29N 52°06' E 004°16'0 0.0
2017-Dec-10 14:59N 52°06' E 004°16'0 0.0
2017-Dec-10 14:29N 52°06' E 004°16'0 0.0
2017-Dec-10 13:59N 52°06' E 004°16'0 0.0
2017-Dec-10 13:29N 52°06' E 004°16'0 0.0
2017-Dec-10 12:59N 52°06' E 004°16'0 0.0
2017-Dec-10 12:29N 52°06' E 004°16'0 0.0
2017-Dec-10 11:59N 52°06' E 004°16'0 0.0
2017-Dec-10 11:29N 52°06' E 004°16'0 0.0
2017-Dec-10 10:59N 52°06' E 004°16'0 0.0
2017-Dec-10 10:29N 52°06' E 004°16'0 0.0
2017-Dec-10 09:59N 52°06' E 004°16'0 0.0
2017-Dec-10 09:29N 52°06' E 004°16'0 0.0
2017-Dec-10 08:59N 52°06' E 004°16'0 0.0
2017-Dec-10 08:29N 52°06' E 004°16'0 0.0
2017-Dec-10 07:59N 52°06' E 004°16'0 0.0
2017-Dec-10 07:29N 52°06' E 004°16'0 0.0
2017-Dec-10 06:59N 52°06' E 004°16'0 0.0
2017-Dec-10 06:29N 52°06' E 004°16'0 0.0
2017-Dec-10 05:59N 52°06' E 004°16'0 0.0
2017-Dec-10 05:29N 52°06' E 004°16'0 0.0
2017-Dec-10 04:59N 52°06' E 004°16'0 0.0
2017-Dec-10 04:29N 52°06' E 004°16'0 0.0
2017-Dec-10 03:59N 52°06' E 004°16'0 0.0
2017-Dec-10 03:29N 52°06' E 004°16'0 0.0
2017-Dec-10 02:59N 52°06' E 004°16'0 0.0
2017-Dec-10 02:29N 52°06' E 004°16'0 0.0
2017-Dec-10 01:59N 52°06' E 004°16'0 0.0
2017-Dec-10 01:29N 52°06' E 004°16'0 0.0
2017-Dec-10 00:56N 52°06' E 004°16'0 0.0
2017-Dec-10 00:29N 52°06' E 004°16'0 0.0
2017-Dec-09 23:59N 52°06' E 004°16'0 0.0
2017-Dec-09 23:29N 52°06' E 004°16'0 0.0
2017-Dec-09 22:59N 52°06' E 004°16'0 0.0
2017-Dec-09 22:29N 52°06' E 004°16'0 0.0
2017-Dec-09 21:59N 52°06' E 004°16'0 0.0
2017-Dec-09 21:29N 52°06' E 004°16'0 0.0
2017-Dec-09 20:59N 52°06' E 004°16'0 0.0
2017-Dec-09 20:29N 52°06' E 004°16'0 0.0
2017-Dec-09 19:59N 52°06' E 004°16'0 0.0
2017-Dec-09 19:29N 52°06' E 004°16'0 0.0
2017-Dec-09 18:59N 52°06' E 004°16'0 0.0
2017-Dec-09 18:29N 52°06' E 004°16'0 0.0
2017-Dec-09 17:59N 52°06' E 004°16'0 0.0
2017-Dec-09 17:29N 52°06' E 004°16'0 0.0
2017-Dec-09 16:59N 52°06' E 004°16'0 0.0
2017-Dec-09 16:29N 52°06' E 004°16'0 0.0
2017-Dec-09 15:59N 52°06' E 004°16'0 0.0
2017-Dec-09 15:29N 52°06' E 004°16'0 0.0
2017-Dec-09 14:59N 52°06' E 004°16'0 0.0
2017-Dec-09 14:29N 52°06' E 004°16'0 0.0
2017-Dec-09 13:59N 52°06' E 004°16'0 0.0
2017-Dec-09 13:29N 52°06' E 004°16'0 0.0
2017-Dec-09 12:59N 52°06' E 004°16'0 0.0
2017-Dec-09 12:29N 52°06' E 004°16'0 0.0
2017-Dec-09 11:59N 52°06' E 004°16'0 0.0
2017-Dec-09 11:29N 52°06' E 004°16'0 0.0
2017-Dec-09 10:59N 52°06' E 004°16'0 0.0
2017-Dec-09 10:29N 52°06' E 004°16'0 0.0
2017-Dec-09 09:59N 52°06' E 004°16'0 0.0
2017-Dec-09 09:29N 52°06' E 004°16'0 0.0
2017-Dec-09 08:59N 52°06' E 004°16'0 0.0
2017-Dec-09 08:29N 52°06' E 004°16'0 0.0
2017-Dec-09 07:59N 52°06' E 004°16'0 0.0
2017-Dec-09 07:29N 52°06' E 004°16'0 0.0
2017-Dec-09 06:59N 52°06' E 004°16'0 0.0
2017-Dec-09 06:29N 52°06' E 004°16'0 0.0
2017-Dec-09 05:59N 52°06' E 004°16'0 0.0
2017-Dec-09 05:29N 52°06' E 004°16'0 0.0
2017-Dec-09 04:59N 52°06' E 004°16'0 0.0
2017-Dec-09 04:26N 52°06' E 004°16'0 0.0
2017-Dec-09 03:59N 52°06' E 004°16'0 0.0
2017-Dec-09 03:29N 52°06' E 004°16'0 0.0
2017-Dec-09 02:59N 52°06' E 004°16'0 0.0
2017-Dec-09 02:29N 52°06' E 004°16'0 0.0
2017-Dec-09 01:59N 52°06' E 004°16'0 0.0
2017-Dec-09 01:29N 52°06' E 004°16'0 0.0
2017-Dec-09 00:59N 52°06' E 004°16'0 0.0
2017-Dec-09 00:29N 52°06' E 004°16'0 0.0
2017-Dec-08 23:56N 52°06' E 004°16'0 0.0
2017-Dec-08 23:26N 52°06' E 004°16'0 0.0
2017-Dec-08 22:59N 52°06' E 004°16'0 0.0
2017-Dec-08 22:29N 52°06' E 004°16'0 0.0
2017-Dec-08 21:59N 52°06' E 004°16'0 0.0
2017-Dec-08 21:29N 52°06' E 004°16'0 0.0
2017-Dec-08 20:59N 52°06' E 004°16'0 0.0
2017-Dec-08 20:29N 52°06' E 004°16'0 0.0
2017-Dec-08 19:59N 52°06' E 004°16'0 0.0
2017-Dec-08 19:29N 52°06' E 004°16'0 0.0
2017-Dec-08 18:59N 52°06' E 004°16'0 0.0
2017-Dec-08 18:29N 52°06' E 004°16'0 0.0
2017-Dec-08 17:59N 52°06' E 004°16'0 0.0
2017-Dec-08 17:29N 52°06' E 004°16'0 0.0
2017-Dec-08 16:59N 52°06' E 004°16'0 0.0
2017-Dec-08 16:29N 52°06' E 004°16'0 0.0
2017-Dec-08 15:59N 52°06' E 004°16'0 0.0
2017-Dec-08 15:29N 52°06' E 004°16'0 0.0
2017-Dec-08 14:59N 52°06' E 004°16'0 0.0
2017-Dec-08 14:29N 52°06' E 004°16'0 0.0
2017-Dec-08 13:59N 52°06' E 004°16'0 0.0
2017-Dec-08 13:29N 52°06' E 004°16'0 0.0
2017-Dec-08 12:59N 52°06' E 004°16'0 0.0
2017-Dec-08 12:29N 52°06' E 004°16'0 0.0
2017-Dec-08 11:59N 52°06' E 004°16'0 0.0
2017-Dec-08 11:29N 52°06' E 004°16'0 0.0
2017-Dec-08 10:59N 52°06' E 004°16'0 0.0
2017-Dec-08 10:29N 52°06' E 004°16'0 0.0
2017-Dec-08 09:59N 52°06' E 004°16'0 0.0
2017-Dec-08 09:29N 52°06' E 004°16'0 0.0
2017-Dec-08 08:59N 52°06' E 004°16'0 0.0
2017-Dec-08 08:29N 52°06' E 004°16'0 0.0
2017-Dec-08 07:59N 52°06' E 004°16'0 0.0
2017-Dec-08 07:29N 52°06' E 004°16'0 0.0
2017-Dec-08 06:59N 52°06' E 004°16'0 0.0
2017-Dec-08 06:29N 52°06' E 004°16'0 0.0
2017-Dec-08 05:59N 52°06' E 004°16'0 0.0
2017-Dec-08 05:29N 52°06' E 004°16'0 0.0
2017-Dec-08 04:59N 52°06' E 004°16'0 0.0
2017-Dec-08 04:29N 52°06' E 004°16'0 0.0
2017-Dec-08 03:59N 52°06' E 004°16'0 0.0
2017-Dec-08 03:29N 52°06' E 004°16'0 0.0
2017-Dec-08 02:59N 52°06' E 004°16'0 0.0
2017-Dec-08 02:29N 52°06' E 004°16'0 0.0
2017-Dec-08 01:59N 52°06' E 004°16'0 0.0
2017-Dec-08 01:29N 52°06' E 004°16'0 0.0
2017-Dec-08 00:59N 52°06' E 004°16'0 0.0
2017-Dec-08 00:29N 52°06' E 004°16'0 0.0
2017-Dec-07 23:59N 52°06' E 004°16'0 0.0
2017-Dec-07 23:29N 52°06' E 004°16'0 0.0
2017-Dec-07 22:59N 52°06' E 004°16'0 0.0
2017-Dec-07 22:29N 52°06' E 004°16'0 0.0
2017-Dec-07 21:59N 52°06' E 004°16'0 0.0
2017-Dec-07 21:29N 52°06' E 004°16'0 0.0
2017-Dec-07 20:59N 52°06' E 004°16'0 0.0
2017-Dec-07 20:29N 52°06' E 004°16'0 0.0
2017-Dec-07 19:59N 52°06' E 004°16'0 0.0
2017-Dec-07 19:29N 52°06' E 004°16'0 0.0
2017-Dec-07 18:59N 52°06' E 004°16'0 0.0
2017-Dec-07 18:29N 52°06' E 004°16'0 0.0
2017-Dec-07 17:59N 52°06' E 004°16'0 0.0
2017-Dec-07 17:29N 52°06' E 004°16'0 0.0
2017-Dec-07 16:59N 52°06' E 004°16'0 0.0
2017-Dec-07 16:29N 52°06' E 004°16'0 0.0
2017-Dec-07 15:59N 52°06' E 004°16'0 0.0
2017-Dec-07 15:29N 52°06' E 004°16'0 0.0
2017-Dec-07 14:59N 52°06' E 004°16'0 0.0
2017-Dec-07 14:29N 52°06' E 004°16'0 0.0
2017-Dec-07 13:59N 52°06' E 004°16'0 0.0
2017-Dec-07 13:29N 52°06' E 004°16'0 0.0
2017-Dec-07 12:59N 52°06' E 004°16'0 0.0
2017-Dec-07 12:29N 52°06' E 004°16'0 0.0
2017-Dec-07 11:59N 52°06' E 004°16'0 0.0
2017-Dec-07 11:29N 52°06' E 004°16'0 0.0
2017-Dec-07 10:59N 52°06' E 004°16'0 0.0
2017-Dec-07 10:29N 52°06' E 004°16'0 0.0
2017-Dec-07 09:59N 52°06' E 004°16'0 0.0
2017-Dec-07 09:26N 52°06' E 004°16'0 0.0
2017-Dec-07 08:59N 52°06' E 004°16'0 0.0
2017-Dec-07 08:29N 52°06' E 004°16'0 0.0
2017-Dec-07 07:59N 52°06' E 004°16'0 0.0
2017-Dec-07 07:29N 52°06' E 004°16'0 0.0
2017-Dec-07 06:59N 52°06' E 004°16'0 0.0
2017-Dec-07 06:29N 52°06' E 004°16'0 0.0
2017-Dec-07 05:59N 52°06' E 004°16'0 0.0
2017-Dec-07 05:29N 52°06' E 004°16'0 0.0
2017-Dec-07 04:59N 52°06' E 004°16'0 0.0
2017-Dec-07 04:29N 52°06' E 004°16'0 0.0
2017-Dec-07 03:59N 52°06' E 004°16'0 0.0
2017-Dec-07 03:29N 52°06' E 004°16'0 0.0
2017-Dec-07 02:59N 52°06' E 004°16'0 0.0
2017-Dec-07 02:29N 52°06' E 004°16'0 0.0
2017-Dec-07 01:59N 52°06' E 004°16'0 0.0
2017-Dec-07 01:29N 52°06' E 004°16'0 0.0
2017-Dec-07 00:59N 52°06' E 004°16'0 0.0
2017-Dec-07 00:29N 52°06' E 004°16'0 0.0
2017-Dec-06 23:59N 52°06' E 004°16'0 0.0
2017-Dec-06 23:29N 52°06' E 004°16'0 0.0
2017-Dec-06 22:59N 52°06' E 004°16'0 0.0
2017-Dec-06 22:29N 52°06' E 004°16'0 0.0
2017-Dec-06 21:59N 52°06' E 004°16'0 0.0
2017-Dec-06 21:29N 52°06' E 004°16'0 0.0
2017-Dec-06 20:59N 52°06' E 004°16'  
2017-Dec-04 10:26N 52°06' E 004°16'0 0.0
2017-Dec-04 09:59N 52°06' E 004°16'0 0.0
2017-Dec-04 09:29N 52°06' E 004°16'0 0.0
2017-Dec-04 08:56N 52°06' E 004°16'0 0.0
2017-Dec-04 08:29N 52°06' E 004°16'0 0.0
2017-Dec-04 07:59N 52°06' E 004°16'0 0.0
2017-Dec-04 07:29N 52°06' E 004°16'0 0.0
2017-Dec-04 06:59N 52°06' E 004°16'0 0.0
2017-Dec-04 06:29N 52°06' E 004°16'0 0.0
2017-Dec-04 05:59N 52°06' E 004°16'0 0.0
2017-Dec-04 05:29N 52°06' E 004°16'0 0.0
2017-Dec-04 04:59N 52°06' E 004°16'0 0.0
2017-Dec-04 04:29N 52°06' E 004°16'0 0.0
2017-Dec-04 03:59N 52°06' E 004°16'0 0.0
2017-Dec-04 03:29N 52°06' E 004°16'0 0.0
2017-Dec-04 02:59N 52°06' E 004°16'0 0.0
2017-Dec-04 02:29N 52°06' E 004°16'0 0.0
2017-Dec-04 01:59N 52°06' E 004°16'0 0.0
2017-Dec-04 01:29N 52°06' E 004°16'0 0.0
2017-Dec-04 00:59N 52°06' E 004°16'0 0.0
2017-Dec-04 00:29N 52°06' E 004°16'0 0.0
2017-Dec-03 23:59N 52°06' E 004°16'0 0.0
2017-Dec-03 23:29N 52°06' E 004°16'0 0.0
2017-Dec-03 22:59N 52°06' E 004°16'0 0.0
2017-Dec-03 22:26N 52°06' E 004°16'0 0.0
2017-Dec-03 21:59N 52°06' E 004°16'0 0.0
2017-Dec-03 21:29N 52°06' E 004°16'0 0.0
2017-Dec-03 20:59N 52°06' E 004°16'0 0.0
2017-Dec-03 20:29N 52°06' E 004°16'0 0.0
2017-Dec-03 19:59N 52°06' E 004°16'0 0.0
2017-Dec-03 19:29N 52°06' E 004°16'0 0.0
2017-Dec-03 18:59N 52°06' E 004°16'0 0.0
2017-Dec-03 18:29N 52°06' E 004°16'0 0.0
2017-Dec-03 17:59N 52°06' E 004°16'0 0.0
2017-Dec-03 17:29N 52°06' E 004°16'0 0.0
2017-Dec-03 16:59N 52°06' E 004°16'0 0.0
2017-Dec-03 16:29N 52°06' E 004°16'0 0.0
2017-Dec-03 15:59N 52°06' E 004°16'0 0.0
2017-Dec-03 15:29N 52°06' E 004°16'0 0.0
2017-Dec-03 14:59N 52°06' E 004°16'0 0.0
2017-Dec-03 14:29N 52°06' E 004°16'0 0.0
2017-Dec-03 13:59N 52°06' E 004°16'0 0.0
2017-Dec-03 13:29N 52°06' E 004°16'0 0.0
2017-Dec-03 12:59N 52°06' E 004°16'0 0.0
2017-Dec-03 12:29N 52°06' E 004°16'0 0.0
2017-Dec-03 11:59N 52°06' E 004°16'0 0.0
2017-Dec-03 11:29N 52°06' E 004°16'0 0.0
2017-Dec-03 10:59N 52°06' E 004°16'0 0.0
2017-Dec-03 10:29N 52°06' E 004°16'0 0.0
2017-Dec-03 09:59N 52°06' E 004°16'0 0.0
2017-Dec-03 09:29N 52°06' E 004°16'0 0.0
2017-Dec-03 08:59N 52°06' E 004°16'0 0.0
2017-Dec-03 08:29N 52°06' E 004°16'0 0.0
2017-Dec-03 07:59N 52°06' E 004°16'0 0.0
2017-Dec-03 07:29N 52°06' E 004°16'0 0.0
2017-Dec-03 06:59N 52°06' E 004°16'0 0.0
2017-Dec-03 06:26N 52°06' E 004°16'0 0.0
2017-Dec-03 05:59N 52°06' E 004°16'0 0.0
2017-Dec-03 05:29N 52°06' E 004°16'0 0.0
2017-Dec-03 04:56N 52°06' E 004°16'0 0.0
2017-Dec-03 04:29N 52°06' E 004°16'0 0.0
2017-Dec-03 03:59N 52°06' E 004°16'0 0.0
2017-Dec-03 03:29N 52°06' E 004°16'0 0.0
2017-Dec-03 02:59N 52°06' E 004°16'0 0.0
2017-Dec-03 02:29N 52°06' E 004°16'0 0.0
2017-Dec-03 01:59N 52°06' E 004°16'0 0.0
2017-Dec-03 01:29N 52°06' E 004°16'0 0.0
2017-Dec-03 00:59N 52°06' E 004°16'0 0.0
2017-Dec-03 00:26N 52°06' E 004°16'0 0.0
2017-Dec-02 23:59N 52°06' E 004°16'0 0.0
2017-Dec-02 23:29N 52°06' E 004°16'0 0.0
2017-Dec-02 22:59N 52°06' E 004°16'0 0.0
2017-Dec-02 22:29N 52°06' E 004°16'0 0.0
2017-Dec-02 21:59N 52°06' E 004°16'0 0.0
2017-Dec-02 21:29N 52°06' E 004°16'0 0.0
2017-Dec-02 20:59N 52°06' E 004°16'0 0.0
2017-Dec-02 20:29N 52°06' E 004°16'0 0.0
2017-Dec-02 19:59N 52°06' E 004°16'0 0.0
2017-Dec-02 19:29N 52°06' E 004°16'0 0.0
2017-Dec-02 18:56N 52°06' E 004°16'0 0.0
2017-Dec-02 18:29N 52°06' E 004°16'0 0.0
2017-Dec-02 17:59N 52°06' E 004°16'0 0.0
2017-Dec-02 17:29N 52°06' E 004°16'0 0.0
2017-Dec-02 16:59N 52°06' E 004°16'0 0.0
2017-Dec-02 16:29N 52°06' E 004°16'0 0.0
2017-Dec-02 15:59N 52°06' E 004°16'0 0.0
2017-Dec-02 15:29N 52°06' E 004°16'0 0.0
2017-Dec-02 14:59N 52°06' E 004°16'0 0.0
2017-Dec-02 14:29N 52°06' E 004°16'0 0.0
2017-Dec-02 13:59N 52°06' E 004°16'0 0.0
2017-Dec-02 13:29N 52°06' E 004°16'0 0.0
2017-Dec-02 12:59N 52°06' E 004°16'0 0.0
2017-Dec-02 12:29N 52°06' E 004°16'0 0.0
2017-Dec-02 11:59N 52°06' E 004°16'0 0.0
2017-Dec-02 11:29N 52°06' E 004°16'0 0.0
2017-Dec-02 10:59N 52°06' E 004°16'0 0.0
2017-Dec-02 10:29N 52°06' E 004°16'0 0.0
2017-Dec-02 09:59N 52°06' E 004°16'0 0.0
2017-Dec-02 09:29N 52°06' E 004°16'0 0.0
2017-Dec-02 08:59N 52°06' E 004°16'0 0.0
2017-Dec-02 08:29N 52°06' E 004°16'0 0.0
2017-Dec-02 07:59N 52°06' E 004°16'0 0.0
2017-Dec-02 07:29N 52°06' E 004°16'0 0.0
2017-Dec-02 06:59N 52°06' E 004°16'0 0.0
2017-Dec-02 06:29N 52°06' E 004°16'0 0.0
2017-Dec-02 05:59N 52°06' E 004°16'0 0.0
2017-Dec-02 05:26N 52°06' E 004°16'0 0.0
2017-Dec-02 04:56N 52°06' E 004°16'0 0.0
2017-Dec-02 04:29N 52°06' E 004°16'0 0.0
2017-Dec-02 03:59N 52°06' E 004°16'0 0.0
2017-Dec-02 03:26N 52°06' E 004°16'0 0.0
2017-Dec-02 02:59N 52°06' E 004°16'0 0.0
2017-Dec-02 02:29N 52°06' E 004°16'0 0.0
2017-Dec-02 01:59N 52°06' E 004°16'0 0.0
2017-Dec-02 01:29N 52°06' E 004°16'0 0.0
2017-Dec-02 00:59N 52°06' E 004°16'0 0.0
2017-Dec-02 00:29N 52°06' E 004°16'0 0.0
2017-Dec-01 23:59N 52°06' E 004°16'0 0.0
2017-Dec-01 23:29N 52°06' E 004°16'0 0.0
2017-Dec-01 22:59N 52°06' E 004°16'0 0.0
2017-Dec-01 22:29N 52°06' E 004°16'0 0.0
2017-Dec-01 21:59N 52°06' E 004°16'0 0.0
2017-Dec-01 21:29N 52°06' E 004°16'0 0.0
2017-Dec-01 20:59N 52°06' E 004°16'0 0.0
2017-Dec-01 20:29N 52°06' E 004°16'0 0.0
2017-Dec-01 19:59N 52°06' E 004°16'0 0.0
2017-Dec-01 19:29N 52°06' E 004°16'0 0.0
2017-Dec-01 18:59N 52°06' E 004°16'0 0.0
2017-Dec-01 18:29N 52°06' E 004°16'0 0.0
2017-Dec-01 17:59N 52°06' E 004°16'0 0.0
2017-Dec-01 17:29N 52°06' E 004°16'  
Track history (hours):
 
Tides and Currents Weather Stations Pressure Air Temp Water Temp Dewpoint Dewpoint Depression Visibility Wind Speed Wind Dir Waves Ship Positions

Oceanographic research ship Zirfaea (Netherlands)

Detailed information on ship capabilities available from University of Delaware's Ocean Information Center.

Last reported at 2017-Dec-11 17:00 UTC. Time now 2017-Dec-13 12:53 UTC.
Position N 52°34' E 003°33'.

Length 63 m; draft 3.9 m.

Type: Law enforcement. MMSI: 246096000.

Date/timePositionNaut miles runAvg speedWind from/ knotsBaromVisibWave heightAir tempDewpointWater temp
2017-Dec-11 17:00N 52°34' E 003°33'4 8.5
2017-Dec-11 16:31N 52°31' E 003°39'4 8.4
2017-Dec-11 16:00N 52°29' E 003°45'4 8.6
2017-Dec-11 15:30N 52°27' E 003°51'4 8.5
2017-Dec-11 15:00N 52°25' E 003°57'4 8.8
2017-Dec-11 14:30N 52°23' E 004°03'4 9.0
2017-Dec-11 14:00N 52°21' E 004°10'2 4.5
2017-Dec-11 13:30N 52°20' E 004°13'4 7.1
2017-Dec-11 13:01N 52°18' E 004°18'3 5.6
2017-Dec-11 12:30N 52°16' E 004°22'2 3.3
2017-Dec-11 12:00N 52°16' E 004°24'2 4.7
2017-Dec-11 11:30N 52°14' E 004°22'3 5.8
2017-Dec-11 11:00N 52°12' E 004°19'3 6.0
2017-Dec-11 10:30N 52°09' E 004°16'3 6.5
2017-Dec-11 10:01N 52°06' E 004°16'0 0.1
2017-Dec-11 09:29N 52°06' E 004°16'0 0.0
2017-Dec-11 08:59N 52°06' E 004°16'0 0.0
2017-Dec-11 08:29N 52°06' E 004°16'0 0.0
2017-Dec-11 07:59N 52°06' E 004°16'0 0.0
2017-Dec-11 07:29N 52°06' E 004°16'0 0.0
2017-Dec-11 06:59N 52°06' E 004°16'0 0.0
2017-Dec-11 06:29N 52°06' E 004°16'0 0.0
2017-Dec-11 05:59N 52°06' E 004°16'0 0.0
2017-Dec-11 05:29N 52°06' E 004°16'0 0.0
2017-Dec-11 04:59N 52°06' E 004°16'0 0.0
2017-Dec-11 04:29N 52°06' E 004°16'0 0.0
2017-Dec-11 03:59N 52°06' E 004°16'0 0.0
2017-Dec-11 03:29N 52°06' E 004°16'0 0.0
2017-Dec-11 02:59N 52°06' E 004°16'0 0.0
2017-Dec-11 02:29N 52°06' E 004°16'0 0.0
2017-Dec-11 01:59N 52°06' E 004°16'0 0.0
2017-Dec-11 01:29N 52°06' E 004°16'0 0.0
2017-Dec-11 00:59N 52°06' E 004°16'0 0.0
2017-Dec-11 00:29N 52°06' E 004°16'0 0.0
2017-Dec-10 23:59N 52°06' E 004°16'0 0.0
2017-Dec-10 23:29N 52°06' E 004°16'0 0.0
2017-Dec-10 22:59N 52°06' E 004°16'0 0.0
2017-Dec-10 22:29N 52°06' E 004°16'0 0.0
2017-Dec-10 21:59N 52°06' E 004°16'0 0.0
2017-Dec-10 21:29N 52°06' E 004°16'0 0.0
2017-Dec-10 20:59N 52°06' E 004°16'0 0.0
2017-Dec-10 20:29N 52°06' E 004°16'0 0.0
2017-Dec-10 19:59N 52°06' E 004°16'0 0.0
2017-Dec-10 19:26N 52°06' E 004°16'0 0.0
2017-Dec-10 18:59N 52°06' E 004°16'0 0.0
2017-Dec-10 18:29N 52°06' E 004°16'0 0.0
2017-Dec-10 17:59N 52°06' E 004°16'0 0.0
2017-Dec-10 17:29N 52°06' E 004°16'0 0.0
2017-Dec-10 16:59N 52°06' E 004°16'0 0.0
2017-Dec-10 16:26N 52°06' E 004°16'0 0.0
2017-Dec-10 15:59N 52°06' E 004°16'0 0.0
2017-Dec-10 15:29N 52°06' E 004°16'0 0.0
2017-Dec-10 14:59N 52°06' E 004°16'0 0.0
2017-Dec-10 14:29N 52°06' E 004°16'0 0.0
2017-Dec-10 13:59N 52°06' E 004°16'0 0.0
2017-Dec-10 13:29N 52°06' E 004°16'0 0.0
2017-Dec-10 12:59N 52°06' E 004°16'0 0.0
2017-Dec-10 12:29N 52°06' E 004°16'0 0.0
2017-Dec-10 11:59N 52°06' E 004°16'0 0.0
2017-Dec-10 11:29N 52°06' E 004°16'0 0.0
2017-Dec-10 10:59N 52°06' E 004°16'0 0.0
2017-Dec-10 10:29N 52°06' E 004°16'0 0.0
2017-Dec-10 09:59N 52°06' E 004°16'0 0.0
2017-Dec-10 09:29N 52°06' E 004°16'0 0.0
2017-Dec-10 08:59N 52°06' E 004°16'0 0.0
2017-Dec-10 08:29N 52°06' E 004°16'0 0.0
2017-Dec-10 07:59N 52°06' E 004°16'0 0.0
2017-Dec-10 07:29N 52°06' E 004°16'0 0.0
2017-Dec-10 06:59N 52°06' E 004°16'0 0.0
2017-Dec-10 06:29N 52°06' E 004°16'0 0.0
2017-Dec-10 05:59N 52°06' E 004°16'0 0.0
2017-Dec-10 05:29N 52°06' E 004°16'0 0.0
2017-Dec-10 04:59N 52°06' E 004°16'0 0.0
2017-Dec-10 04:29N 52°06' E 004°16'0 0.0
2017-Dec-10 03:59N 52°06' E 004°16'0 0.0
2017-Dec-10 03:29N 52°06' E 004°16'0 0.0
2017-Dec-10 02:59N 52°06' E 004°16'0 0.0
2017-Dec-10 02:29N 52°06' E 004°16'0 0.0
2017-Dec-10 01:59N 52°06' E 004°16'0 0.0
2017-Dec-10 01:29N 52°06' E 004°16'0 0.0
2017-Dec-10 00:56N 52°06' E 004°16'0 0.0
2017-Dec-10 00:29N 52°06' E 004°16'0 0.0
2017-Dec-09 23:59N 52°06' E 004°16'0 0.0
2017-Dec-09 23:29N 52°06' E 004°16'0 0.0
2017-Dec-09 22:59N 52°06' E 004°16'0 0.0
2017-Dec-09 22:29N 52°06' E 004°16'0 0.0
2017-Dec-09 21:59N 52°06' E 004°16'0 0.0
2017-Dec-09 21:29N 52°06' E 004°16'0 0.0
2017-Dec-09 20:59N 52°06' E 004°16'0 0.0
2017-Dec-09 20:29N 52°06' E 004°16'0 0.0
2017-Dec-09 19:59N 52°06' E 004°16'0 0.0
2017-Dec-09 19:29N 52°06' E 004°16'0 0.0
2017-Dec-09 18:59N 52°06' E 004°16'0 0.0
2017-Dec-09 18:29N 52°06' E 004°16'0 0.0
2017-Dec-09 17:59N 52°06' E 004°16'0 0.0
2017-Dec-09 17:29N 52°06' E 004°16'0 0.0
2017-Dec-09 16:59N 52°06' E 004°16'0 0.0
2017-Dec-09 16:29N 52°06' E 004°16'0 0.0
2017-Dec-09 15:59N 52°06' E 004°16'0 0.0
2017-Dec-09 15:29N 52°06' E 004°16'0 0.0
2017-Dec-09 14:59N 52°06' E 004°16'0 0.0
2017-Dec-09 14:29N 52°06' E 004°16'0 0.0
2017-Dec-09 13:59N 52°06' E 004°16'0 0.0
2017-Dec-09 13:29N 52°06' E 004°16'0 0.0
2017-Dec-09 12:59N 52°06' E 004°16'0 0.0
2017-Dec-09 12:29N 52°06' E 004°16'0 0.0
2017-Dec-09 11:59N 52°06' E 004°16'0 0.0
2017-Dec-09 11:29N 52°06' E 004°16'0 0.0
2017-Dec-09 10:59N 52°06' E 004°16'0 0.0
2017-Dec-09 10:29N 52°06' E 004°16'0 0.0
2017-Dec-09 09:59N 52°06' E 004°16'0 0.0
2017-Dec-09 09:29N 52°06' E 004°16'0 0.0
2017-Dec-09 08:59N 52°06' E 004°16'0 0.0
2017-Dec-09 08:29N 52°06' E 004°16'0 0.0
2017-Dec-09 07:59N 52°06' E 004°16'0 0.0
2017-Dec-09 07:29N 52°06' E 004°16'0 0.0
2017-Dec-09 06:59N 52°06' E 004°16'0 0.0
2017-Dec-09 06:29N 52°06' E 004°16'0 0.0
2017-Dec-09 05:59N 52°06' E 004°16'0 0.0
2017-Dec-09 05:29N 52°06' E 004°16'0 0.0
2017-Dec-09 04:59N 52°06' E 004°16'0 0.0
2017-Dec-09 04:26N 52°06' E 004°16'0 0.0
2017-Dec-09 03:59N 52°06' E 004°16'0 0.0
2017-Dec-09 03:29N 52°06' E 004°16'0 0.0
2017-Dec-09 02:59N 52°06' E 004°16'0 0.0
2017-Dec-09 02:29N 52°06' E 004°16'0 0.0
2017-Dec-09 01:59N 52°06' E 004°16'0 0.0
2017-Dec-09 01:29N 52°06' E 004°16'0 0.0
2017-Dec-09 00:59N 52°06' E 004°16'0 0.0
2017-Dec-09 00:29N 52°06' E 004°16'0 0.0
2017-Dec-08 23:56N 52°06' E 004°16'0 0.0
2017-Dec-08 23:26N 52°06' E 004°16'0 0.0
2017-Dec-08 22:59N 52°06' E 004°16'0 0.0
2017-Dec-08 22:29N 52°06' E 004°16'0 0.0
2017-Dec-08 21:59N 52°06' E 004°16'0 0.0
2017-Dec-08 21:29N 52°06' E 004°16'0 0.0
2017-Dec-08 20:59N 52°06' E 004°16'0 0.0
2017-Dec-08 20:29N 52°06' E 004°16'0 0.0
2017-Dec-08 19:59N 52°06' E 004°16'0 0.0
2017-Dec-08 19:29N 52°06' E 004°16'0 0.0
2017-Dec-08 18:59N 52°06' E 004°16'0 0.0
2017-Dec-08 18:29N 52°06' E 004°16'0 0.0
2017-Dec-08 17:59N 52°06' E 004°16'0 0.0
2017-Dec-08 17:29N 52°06' E 004°16'0 0.0
2017-Dec-08 16:59N 52°06' E 004°16'0 0.0
2017-Dec-08 16:29N 52°06' E 004°16'0 0.0
2017-Dec-08 15:59N 52°06' E 004°16'0 0.0
2017-Dec-08 15:29N 52°06' E 004°16'0 0.0
2017-Dec-08 14:59N 52°06' E 004°16'0 0.0
2017-Dec-08 14:29N 52°06' E 004°16'0 0.0
2017-Dec-08 13:59N 52°06' E 004°16'0 0.0
2017-Dec-08 13:29N 52°06' E 004°16'0 0.0
2017-Dec-08 12:59N 52°06' E 004°16'0 0.0
2017-Dec-08 12:29N 52°06' E 004°16'0 0.0
2017-Dec-08 11:59N 52°06' E 004°16'0 0.0
2017-Dec-08 11:29N 52°06' E 004°16'0 0.0
2017-Dec-08 10:59N 52°06' E 004°16'0 0.0
2017-Dec-08 10:29N 52°06' E 004°16'0 0.0
2017-Dec-08 09:59N 52°06' E 004°16'0 0.0
2017-Dec-08 09:29N 52°06' E 004°16'0 0.0
2017-Dec-08 08:59N 52°06' E 004°16'0 0.0
2017-Dec-08 08:29N 52°06' E 004°16'0 0.0
2017-Dec-08 07:59N 52°06' E 004°16'0 0.0
2017-Dec-08 07:29N 52°06' E 004°16'0 0.0
2017-Dec-08 06:59N 52°06' E 004°16'0 0.0
2017-Dec-08 06:29N 52°06' E 004°16'0 0.0
2017-Dec-08 05:59N 52°06' E 004°16'0 0.0
2017-Dec-08 05:29N 52°06' E 004°16'0 0.0
2017-Dec-08 04:59N 52°06' E 004°16'0 0.0
2017-Dec-08 04:29N 52°06' E 004°16'0 0.0
2017-Dec-08 03:59N 52°06' E 004°16'0 0.0
2017-Dec-08 03:29N 52°06' E 004°16'0 0.0
2017-Dec-08 02:59N 52°06' E 004°16'0 0.0
2017-Dec-08 02:29N 52°06' E 004°16'0 0.0
2017-Dec-08 01:59N 52°06' E 004°16'0 0.0
2017-Dec-08 01:29N 52°06' E 004°16'0 0.0
2017-Dec-08 00:59N 52°06' E 004°16'0 0.0
2017-Dec-08 00:29N 52°06' E 004°16'0 0.0
2017-Dec-07 23:59N 52°06' E 004°16'0 0.0
2017-Dec-07 23:29N 52°06' E 004°16'0 0.0
2017-Dec-07 22:59N 52°06' E 004°16'0 0.0
2017-Dec-07 22:29N 52°06' E 004°16'0 0.0
2017-Dec-07 21:59N 52°06' E 004°16'0 0.0
2017-Dec-07 21:29N 52°06' E 004°16'0 0.0
2017-Dec-07 20:59N 52°06' E 004°16'0 0.0
2017-Dec-07 20:29N 52°06' E 004°16'0 0.0
2017-Dec-07 19:59N 52°06' E 004°16'0 0.0
2017-Dec-07 19:29N 52°06' E 004°16'0 0.0
2017-Dec-07 18:59N 52°06' E 004°16'0 0.0
2017-Dec-07 18:29N 52°06' E 004°16'0 0.0
2017-Dec-07 17:59N 52°06' E 004°16'0 0.0
2017-Dec-07 17:29N 52°06' E 004°16'0 0.0
2017-Dec-07 16:59N 52°06' E 004°16'0 0.0
2017-Dec-07 16:29N 52°06' E 004°16'0 0.0
2017-Dec-07 15:59N 52°06' E 004°16'0 0.0
2017-Dec-07 15:29N 52°06' E 004°16'0 0.0
2017-Dec-07 14:59N 52°06' E 004°16'0 0.0
2017-Dec-07 14:29N 52°06' E 004°16'0 0.0
2017-Dec-07 13:59N 52°06' E 004°16'0 0.0
2017-Dec-07 13:29N 52°06' E 004°16'0 0.0
2017-Dec-07 12:59N 52°06' E 004°16'0 0.0
2017-Dec-07 12:29N 52°06' E 004°16'0 0.0
2017-Dec-07 11:59N 52°06' E 004°16'0 0.0
2017-Dec-07 11:29N 52°06' E 004°16'0 0.0
2017-Dec-07 10:59N 52°06' E 004°16'0 0.0
2017-Dec-07 10:29N 52°06' E 004°16'0 0.0
2017-Dec-07 09:59N 52°06' E 004°16'0 0.0
2017-Dec-07 09:26N 52°06' E 004°16'0 0.0
2017-Dec-07 08:59N 52°06' E 004°16'0 0.0
2017-Dec-07 08:29N 52°06' E 004°16'0 0.0
2017-Dec-07 07:59N 52°06' E 004°16'0 0.0
2017-Dec-07 07:29N 52°06' E 004°16'0 0.0
2017-Dec-07 06:59N 52°06' E 004°16'0 0.0
2017-Dec-07 06:29N 52°06' E 004°16'0 0.0
2017-Dec-07 05:59N 52°06' E 004°16'0 0.0
2017-Dec-07 05:29N 52°06' E 004°16'0 0.0
2017-Dec-07 04:59N 52°06' E 004°16'0 0.0
2017-Dec-07 04:29N 52°06' E 004°16'0 0.0
2017-Dec-07 03:59N 52°06' E 004°16'0 0.0
2017-Dec-07 03:29N 52°06' E 004°16'0 0.0
2017-Dec-07 02:59N 52°06' E 004°16'0 0.0
2017-Dec-07 02:29N 52°06' E 004°16'0 0.0
2017-Dec-07 01:59N 52°06' E 004°16'0 0.0
2017-Dec-07 01:29N 52°06' E 004°16'0 0.0
2017-Dec-07 00:59N 52°06' E 004°16'0 0.0
2017-Dec-07 00:29N 52°06' E 004°16'0 0.0
2017-Dec-06 23:59N 52°06' E 004°16'0 0.0
2017-Dec-06 23:29N 52°06' E 004°16'0 0.0
2017-Dec-06 22:59N 52°06' E 004°16'0 0.0
2017-Dec-06 22:29N 52°06' E 004°16'0 0.0
2017-Dec-06 21:59N 52°06' E 004°16'0 0.0
2017-Dec-06 21:29N 52°06' E 004°16'0 0.0
2017-Dec-06 20:59N 52°06' E 004°16'  
2017-Dec-04 10:26N 52°06' E 004°16'0 0.0
2017-Dec-04 09:59N 52°06' E 004°16'0 0.0
2017-Dec-04 09:29N 52°06' E 004°16'0 0.0
2017-Dec-04 08:56N 52°06' E 004°16'0 0.0
2017-Dec-04 08:29N 52°06' E 004°16'0 0.0
2017-Dec-04 07:59N 52°06' E 004°16'0 0.0
2017-Dec-04 07:29N 52°06' E 004°16'0 0.0
2017-Dec-04 06:59N 52°06' E 004°16'0 0.0
2017-Dec-04 06:29N 52°06' E 004°16'0 0.0
2017-Dec-04 05:59N 52°06' E 004°16'0 0.0
2017-Dec-04 05:29N 52°06' E 004°16'0 0.0
2017-Dec-04 04:59N 52°06' E 004°16'0 0.0
2017-Dec-04 04:29N 52°06' E 004°16'0 0.0
2017-Dec-04 03:59N 52°06' E 004°16'0 0.0
2017-Dec-04 03:29N 52°06' E 004°16'0 0.0
2017-Dec-04 02:59N 52°06' E 004°16'0 0.0
2017-Dec-04 02:29N 52°06' E 004°16'0 0.0
2017-Dec-04 01:59N 52°06' E 004°16'0 0.0
2017-Dec-04 01:29N 52°06' E 004°16'0 0.0
2017-Dec-04 00:59N 52°06' E 004°16'0 0.0
2017-Dec-04 00:29N 52°06' E 004°16'0 0.0
2017-Dec-03 23:59N 52°06' E 004°16'0 0.0
2017-Dec-03 23:29N 52°06' E 004°16'0 0.0
2017-Dec-03 22:59N 52°06' E 004°16'0 0.0
2017-Dec-03 22:26N 52°06' E 004°16'0 0.0
2017-Dec-03 21:59N 52°06' E 004°16'0 0.0
2017-Dec-03 21:29N 52°06' E 004°16'0 0.0
2017-Dec-03 20:59N 52°06' E 004°16'0 0.0
2017-Dec-03 20:29N 52°06' E 004°16'0 0.0
2017-Dec-03 19:59N 52°06' E 004°16'0 0.0
2017-Dec-03 19:29N 52°06' E 004°16'0 0.0
2017-Dec-03 18:59N 52°06' E 004°16'0 0.0
2017-Dec-03 18:29N 52°06' E 004°16'0 0.0
2017-Dec-03 17:59N 52°06' E 004°16'0 0.0
2017-Dec-03 17:29N 52°06' E 004°16'0 0.0
2017-Dec-03 16:59N 52°06' E 004°16'0 0.0
2017-Dec-03 16:29N 52°06' E 004°16'0 0.0
2017-Dec-03 15:59N 52°06' E 004°16'0 0.0
2017-Dec-03 15:29N 52°06' E 004°16'0 0.0
2017-Dec-03 14:59N 52°06' E 004°16'0 0.0
2017-Dec-03 14:29N 52°06' E 004°16'0 0.0
2017-Dec-03 13:59N 52°06' E 004°16'0 0.0
2017-Dec-03 13:29N 52°06' E 004°16'0 0.0
2017-Dec-03 12:59N 52°06' E 004°16'0 0.0
2017-Dec-03 12:29N 52°06' E 004°16'0 0.0
2017-Dec-03 11:59N 52°06' E 004°16'0 0.0
2017-Dec-03 11:29N 52°06' E 004°16'0 0.0
2017-Dec-03 10:59N 52°06' E 004°16'0 0.0
2017-Dec-03 10:29N 52°06' E 004°16'0 0.0
2017-Dec-03 09:59N 52°06' E 004°16'0 0.0
2017-Dec-03 09:29N 52°06' E 004°16'0 0.0
2017-Dec-03 08:59N 52°06' E 004°16'0 0.0
2017-Dec-03 08:29N 52°06' E 004°16'0 0.0
2017-Dec-03 07:59N 52°06' E 004°16'0 0.0
2017-Dec-03 07:29N 52°06' E 004°16'0 0.0
2017-Dec-03 06:59N 52°06' E 004°16'0 0.0
2017-Dec-03 06:26N 52°06' E 004°16'0 0.0
2017-Dec-03 05:59N 52°06' E 004°16'0 0.0
2017-Dec-03 05:29N 52°06' E 004°16'0 0.0
2017-Dec-03 04:56N 52°06' E 004°16'0 0.0
2017-Dec-03 04:29N 52°06' E 004°16'0 0.0
2017-Dec-03 03:59N 52°06' E 004°16'0 0.0
2017-Dec-03 03:29N 52°06' E 004°16'0 0.0
2017-Dec-03 02:59N 52°06' E 004°16'0 0.0
2017-Dec-03 02:29N 52°06' E 004°16'0 0.0
2017-Dec-03 01:59N 52°06' E 004°16'0 0.0
2017-Dec-03 01:29N 52°06' E 004°16'0 0.0
2017-Dec-03 00:59N 52°06' E 004°16'0 0.0
2017-Dec-03 00:26N 52°06' E 004°16'0 0.0
2017-Dec-02 23:59N 52°06' E 004°16'0 0.0
2017-Dec-02 23:29N 52°06' E 004°16'0 0.0
2017-Dec-02 22:59N 52°06' E 004°16'0 0.0
2017-Dec-02 22:29N 52°06' E 004°16'0 0.0
2017-Dec-02 21:59N 52°06' E 004°16'0 0.0
2017-Dec-02 21:29N 52°06' E 004°16'0 0.0
2017-Dec-02 20:59N 52°06' E 004°16'0 0.0
2017-Dec-02 20:29N 52°06' E 004°16'0 0.0
2017-Dec-02 19:59N 52°06' E 004°16'0 0.0
2017-Dec-02 19:29N 52°06' E 004°16'0 0.0
2017-Dec-02 18:56N 52°06' E 004°16'0 0.0
2017-Dec-02 18:29N 52°06' E 004°16'0 0.0
2017-Dec-02 17:59N 52°06' E 004°16'0 0.0
2017-Dec-02 17:29N 52°06' E 004°16'0 0.0
2017-Dec-02 16:59N 52°06' E 004°16'0 0.0
2017-Dec-02 16:29N 52°06' E 004°16'0 0.0
2017-Dec-02 15:59N 52°06' E 004°16'0 0.0
2017-Dec-02 15:29N 52°06' E 004°16'0 0.0
2017-Dec-02 14:59N 52°06' E 004°16'0 0.0
2017-Dec-02 14:29N 52°06' E 004°16'0 0.0
2017-Dec-02 13:59N 52°06' E 004°16'0 0.0
2017-Dec-02 13:29N 52°06' E 004°16'0 0.0
2017-Dec-02 12:59N 52°06' E 004°16'0 0.0
2017-Dec-02 12:29N 52°06' E 004°16'0 0.0
2017-Dec-02 11:59N 52°06' E 004°16'0 0.0
2017-Dec-02 11:29N 52°06' E 004°16'0 0.0
2017-Dec-02 10:59N 52°06' E 004°16'0 0.0
2017-Dec-02 10:29N 52°06' E 004°16'0 0.0
2017-Dec-02 09:59N 52°06' E 004°16'0 0.0
2017-Dec-02 09:29N 52°06' E 004°16'0 0.0
2017-Dec-02 08:59N 52°06' E 004°16'0 0.0
2017-Dec-02 08:29N 52°06' E 004°16'0 0.0
2017-Dec-02 07:59N 52°06' E 004°16'0 0.0
2017-Dec-02 07:29N 52°06' E 004°16'0 0.0
2017-Dec-02 06:59N 52°06' E 004°16'0 0.0
2017-Dec-02 06:29N 52°06' E 004°16'0 0.0
2017-Dec-02 05:59N 52°06' E 004°16'0 0.0
2017-Dec-02 05:26N 52°06' E 004°16'0 0.0
2017-Dec-02 04:56N 52°06' E 004°16'0 0.0
2017-Dec-02 04:29N 52°06' E 004°16'0 0.0
2017-Dec-02 03:59N 52°06' E 004°16'0 0.0
2017-Dec-02 03:26N 52°06' E 004°16'0 0.0
2017-Dec-02 02:59N 52°06' E 004°16'0 0.0
2017-Dec-02 02:29N 52°06' E 004°16'0 0.0
2017-Dec-02 01:59N 52°06' E 004°16'0 0.0
2017-Dec-02 01:29N 52°06' E 004°16'0 0.0
2017-Dec-02 00:59N 52°06' E 004°16'0 0.0
2017-Dec-02 00:29N 52°06' E 004°16'0 0.0
2017-Dec-01 23:59N 52°06' E 004°16'0 0.0
2017-Dec-01 23:29N 52°06' E 004°16'0 0.0
2017-Dec-01 22:59N 52°06' E 004°16'0 0.0
2017-Dec-01 22:29N 52°06' E 004°16'0 0.0
2017-Dec-01 21:59N 52°06' E 004°16'0 0.0
2017-Dec-01 21:29N 52°06' E 004°16'0 0.0
2017-Dec-01 20:59N 52°06' E 004°16'0 0.0
2017-Dec-01 20:29N 52°06' E 004°16'0 0.0
2017-Dec-01 19:59N 52°06' E 004°16'0 0.0
2017-Dec-01 19:29N 52°06' E 004°16'0 0.0
2017-Dec-01 18:59N 52°06' E 004°16'0 0.0
2017-Dec-01 18:29N 52°06' E 004°16'0 0.0
2017-Dec-01 17:59N 52°06' E 004°16'0 0.0
2017-Dec-01 17:29N 52°06' E 004°16'  

Dump ship's entire track history